UAL408 KSAN-KSFO
Flight info
| Callsign | UAL408 |
|---|---|
| Flight time | N/A |
| Altitude | 38000 |
| Route | PADRZ2 IKAYE RIZIN SPLNT STOKD SERFR SERFR4 |
| Aircraft | B739/M-SDE1E2E3FGHIJ2J3J5M1RWXY/LB1D1 |
Departure
| Time | 2026-05-01 07:51 |
|---|---|
| Airport | San Diego International Airport (KSAN) |
Arrival
| Time | N/A |
|---|---|
| Airport | San Francisco International Airport (KSFO) |
| Time | Latitude | Longitude | Altitude | Speed | Heading |
|---|---|---|---|---|---|
| 2026-05-01 07:34 | 32.73408 | -117.20083 | 24 ft | 0 kts | 206° |
| 2026-05-01 07:41 | 32.73417 | -117.20077 | 29 ft | 3 kts | 206° |
| 2026-05-01 07:41 | 32.73451 | -117.20058 | 27 ft | 3 kts | 206° |
| 2026-05-01 07:42 | 32.73468 | -117.20048 | 29 ft | 3 kts | 206° |
| 2026-05-01 07:42 | 32.73477 | -117.20043 | 29 ft | 0 kts | 205° |
| 2026-05-01 07:44 | 32.73456 | -117.20026 | 28 ft | 6 kts | 102° |
| 2026-05-01 07:45 | 32.73458 | -117.19978 | 25 ft | 6 kts | 82° |
| 2026-05-01 07:45 | 32.73468 | -117.19932 | 27 ft | 7 kts | 73° |
| 2026-05-01 07:45 | 32.73462 | -117.19843 | 26 ft | 12 kts | 105° |
| 2026-05-01 07:45 | 32.73443 | -117.19744 | 27 ft | 12 kts | 102° |
| 2026-05-01 07:46 | 32.73419 | -117.19646 | 26 ft | 13 kts | 108° |
| 2026-05-01 07:46 | 32.73392 | -117.19547 | 27 ft | 13 kts | 108° |
| 2026-05-01 07:46 | 32.73330 | -117.19291 | 23 ft | 20 kts | 105° |
| 2026-05-01 07:47 | 32.73291 | -117.19124 | 24 ft | 21 kts | 106° |
| 2026-05-01 07:47 | 32.73250 | -117.18955 | 28 ft | 21 kts | 106° |
| 2026-05-01 07:47 | 32.73210 | -117.18791 | 27 ft | 20 kts | 105° |
| 2026-05-01 07:47 | 32.73173 | -117.18634 | 30 ft | 20 kts | 105° |
| 2026-05-01 07:48 | 32.73101 | -117.18331 | 30 ft | 18 kts | 106° |
| 2026-05-01 07:48 | 32.73066 | -117.18189 | 27 ft | 18 kts | 106° |
| 2026-05-01 07:48 | 32.73033 | -117.18051 | 24 ft | 17 kts | 106° |
| 2026-05-01 07:49 | 32.73001 | -117.17918 | 24 ft | 16 kts | 106° |
| 2026-05-01 07:49 | 32.72959 | -117.17664 | 26 ft | 15 kts | 75° |
| 2026-05-01 07:49 | 32.73028 | -117.17630 | 27 ft | 14 kts | 298° |
| 2026-05-01 07:50 | 32.73039 | -117.17668 | 26 ft | 0 kts | 286° |
| 2026-05-01 07:50 | 32.73276 | -117.18642 | 32 ft | 143 kts | 285° |
| 2026-05-01 07:50 | 32.73584 | -117.19962 | 398 ft | 175 kts | 285° |
| 2026-05-01 07:51 | 32.73940 | -117.21358 | 1386 ft | 183 kts | 294° |
| 2026-05-01 07:51 | 32.74685 | -117.22710 | 1940 ft | 212 kts | 304° |
| 2026-05-01 07:51 | 32.75588 | -117.24254 | 2212 ft | 240 kts | 304° |
| 2026-05-01 07:52 | 32.77579 | -117.27713 | 3367 ft | 258 kts | 305° |
| 2026-05-01 07:52 | 32.78257 | -117.28895 | 3994 ft | 258 kts | 306° |
| 2026-05-01 07:52 | 32.79579 | -117.31207 | 5375 ft | 254 kts | 306° |
| 2026-05-01 07:53 | 32.81369 | -117.34086 | 6620 ft | 264 kts | 309° |
| 2026-05-01 07:53 | 32.82499 | -117.35818 | 7339 ft | 270 kts | 309° |
| 2026-05-01 07:53 | 32.83670 | -117.37613 | 8055 ft | 277 kts | 309° |
| 2026-05-01 07:53 | 32.84866 | -117.39454 | 8784 ft | 283 kts | 309° |
| 2026-05-01 07:54 | 32.87308 | -117.43231 | 10211 ft | 295 kts | 309° |
| 2026-05-01 07:55 | 32.91085 | -117.49097 | 12171 ft | 314 kts | 309° |
| 2026-05-01 07:55 | 32.93915 | -117.53496 | 12508 ft | 356 kts | 309° |
| 2026-05-01 07:56 | 32.98554 | -117.60735 | 14260 ft | 367 kts | 308° |
| 2026-05-01 07:56 | 33.01670 | -117.65604 | 15357 ft | 374 kts | 308° |
| 2026-05-01 07:57 | 33.03240 | -117.68059 | 15914 ft | 377 kts | 308° |
| 2026-05-01 07:57 | 33.06459 | -117.73047 | 17113 ft | 379 kts | 311° |
| 2026-05-01 07:58 | 33.10425 | -117.77217 | 18202 ft | 384 kts | 321° |
| 2026-05-01 07:58 | 33.14553 | -117.81270 | 19154 ft | 388 kts | 320° |
| 2026-05-01 07:59 | 33.18697 | -117.85478 | 20112 ft | 391 kts | 319° |
| 2026-05-01 07:59 | 33.22680 | -117.89926 | 21060 ft | 395 kts | 315° |
| 2026-05-01 08:00 | 33.30487 | -117.99386 | 22872 ft | 403 kts | 315° |
| 2026-05-01 08:01 | 33.36464 | -118.06566 | 24027 ft | 410 kts | 315° |
| 2026-05-01 08:01 | 33.38492 | -118.08996 | 24361 ft | 412 kts | 315° |
| 2026-05-01 08:01 | 33.40526 | -118.11433 | 24712 ft | 414 kts | 315° |
| 2026-05-01 08:02 | 33.44591 | -118.16308 | 25491 ft | 416 kts | 315° |
| 2026-05-01 08:02 | 33.46642 | -118.18771 | 25856 ft | 417 kts | 315° |
| 2026-05-01 08:03 | 33.50736 | -118.23692 | 26690 ft | 416 kts | 314° |
| 2026-05-01 08:03 | 33.52781 | -118.26152 | 27264 ft | 413 kts | 314° |
| 2026-05-01 08:03 | 33.56778 | -118.30967 | 28513 ft | 404 kts | 314° |
| 2026-05-01 08:04 | 33.60724 | -118.35727 | 29579 ft | 401 kts | 314° |
| 2026-05-01 08:04 | 33.64691 | -118.40520 | 30100 ft | 409 kts | 314° |
| 2026-05-01 08:05 | 33.68688 | -118.45354 | 30865 ft | 408 kts | 314° |
| 2026-05-01 08:05 | 33.70682 | -118.47768 | 31374 ft | 404 kts | 314° |
| 2026-05-01 08:05 | 33.72661 | -118.50166 | 31829 ft | 401 kts | 314° |
| 2026-05-01 08:06 | 33.76567 | -118.54904 | 32630 ft | 399 kts | 314° |
| 2026-05-01 08:06 | 33.80438 | -118.59607 | 33457 ft | 395 kts | 313° |
| 2026-05-01 08:07 | 33.84298 | -118.64301 | 34181 ft | 392 kts | 313° |
| 2026-05-01 08:07 | 33.88114 | -118.68949 | 34639 ft | 393 kts | 313° |